Decoded Metar for VTCC (CHIANG MAI(CIV/A in THAILAND) (IATA:N/A) | Meteo·Mobile Aviation Weather
aviador You're here:

VTCC Decoded Metar

CHIANG MAI(CIV/A in THAILAND
Report Time2019-07-23 02:30:00
UTC Time2019-07-23 03:03:56
Flight Rules vfr VFR
Wind020° at 06 kt
W.Decomp.*RWY 36: 5.6 kt HW 2.1 kt RCW
Visibility9999 m
Phenomena:Light Rain
Clouds:Few 015 Hf
Broken 035 Hf
Expected CloudBase > 400 ft AGL from Temp-Dew spread
Ceiling3,500 ft
Temp25°C (ISA +12)
Dew Point24°C (94% RH)
QNH1010 hPa
Density Alt2,923 ft
Elevation1,030 ft
Report Wrong Elevation
Raw Report
VTCC 230230Z 02006KT 9999 -RA FEW015 BKN035 25/24 Q1010 NOSIG=

Extra information for VTCC:More info

Metar Taf Metar & Taf Last 4 Metars F.Rules Stats Wind Profile Meteogram Temp Stats Airport Information Weather charts Add Link Nearby VenuesMetar ALERT Operation Metar Decoded Social comments